Time,TemperatureF,DewpointF,PressureIn,WindDirection,WindDirectionDegrees,WindSpeedMPH,WindSpeedGustMPH,Humidity,HourlyPrecipIn,Conditions,Clouds,dailyrainin,SolarRadiationWatts/m^2,SoftwareType,DateUTC
2013-06-26 00:01:00,87.0,21.0,-100.00,WNW,285,6.0,13.0,9,0.00,,,0.00,1.000000,,2013-06-26 07:01:00,
2013-06-26 00:33:00,79.0,24.0,-100.00,East,90,4.0,10.0,13,0.00,,,0.00,1.000000,,2013-06-26 07:33:00,
2013-06-26 00:43:00,79.0,24.0,-100.00,East,90,4.0,10.0,13,0.00,,,0.00,1.000000,,2013-06-26 07:43:00,
2013-06-26 00:53:00,79.0,24.0,-100.00,East,90,4.0,10.0,13,0.00,,,0.00,1.000000,,2013-06-26 07:53:00,
2013-06-26 01:01:00,79.0,24.0,-100.00,East,90,4.0,10.0,13,0.00,,,0.00,1.000000,,2013-06-26 08:01:00,
2013-06-26 01:43:00,71.0,19.0,-100.00,NE,42,2.0,5.0,14,0.00,,,0.00,1.000000,,2013-06-26 08:43:00,
2013-06-26 01:53:00,71.0,19.0,-100.00,NE,42,2.0,5.0,14,0.00,,,0.00,1.000000,,2013-06-26 08:53:00,
2013-06-26 02:01:00,71.0,19.0,-100.00,NE,42,2.0,5.0,14,0.00,,,0.00,1.000000,,2013-06-26 09:01:00,
2013-06-26 02:33:00,69.0,21.0,-100.00,North,8,2.0,6.0,16,0.00,,,0.00,1.000000,,2013-06-26 09:33:00,
2013-06-26 02:43:00,69.0,21.0,-100.00,North,8,2.0,6.0,16,0.00,,,0.00,1.000000,,2013-06-26 09:43:00,
2013-06-26 02:53:00,69.0,21.0,-100.00,North,8,2.0,6.0,16,0.00,,,0.00,1.000000,,2013-06-26 09:53:00,
2013-06-26 03:01:00,69.0,21.0,-100.00,North,8,2.0,6.0,16,0.00,,,0.00,1.000000,,2013-06-26 10:01:00,
2013-06-26 03:34:00,70.0,23.0,-100.00,NNE,18,3.0,5.0,17,0.00,,,0.00,1.000000,,2013-06-26 10:34:00,
2013-06-26 03:43:00,70.0,23.0,-100.00,NNE,18,3.0,5.0,17,0.00,,,0.00,1.000000,,2013-06-26 10:43:00,
2013-06-26 03:53:00,70.0,23.0,-100.00,NNE,18,3.0,5.0,17,0.00,,,0.00,1.000000,,2013-06-26 10:53:00,
2013-06-26 04:02:00,70.0,23.0,-100.00,NNE,18,3.0,5.0,17,0.00,,,0.00,1.000000,,2013-06-26 11:02:00,
2013-06-26 04:33:00,70.0,25.0,-100.00,NE,49,1.0,5.0,18,0.00,,,0.00,1.000000,,2013-06-26 11:33:00,
2013-06-26 04:44:00,70.0,25.0,-100.00,NE,49,1.0,5.0,18,0.00,,,0.00,1.000000,,2013-06-26 11:44:00,
2013-06-26 04:52:00,70.0,25.0,-100.00,NE,49,1.0,5.0,18,0.00,,,0.00,1.000000,,2013-06-26 11:52:00,
2013-06-26 05:02:00,70.0,25.0,-100.00,NE,49,1.0,5.0,18,0.00,,,0.00,1.000000,,2013-06-26 12:02:00,
2013-06-26 05:34:00,71.0,27.0,-100.00,NNE,22,4.0,5.0,19,0.00,,,0.00,1.000000,,2013-06-26 12:34:00,
2013-06-26 05:43:00,71.0,27.0,-100.00,NNE,22,4.0,5.0,19,0.00,,,0.00,1.000000,,2013-06-26 12:43:00,
2013-06-26 05:52:00,71.0,27.0,-100.00,NNE,22,4.0,5.0,19,0.00,,,0.00,1.000000,,2013-06-26 12:52:00,
2013-06-26 06:02:00,71.0,27.0,-100.00,NNE,22,4.0,5.0,19,0.00,,,0.00,1.000000,,2013-06-26 13:02:00,
2013-06-26 06:34:00,74.0,28.0,-100.00,NNE,19,3.0,6.0,18,0.00,,,0.00,18.000000,,2013-06-26 13:34:00,
2013-06-26 06:43:00,74.0,28.0,-100.00,NNE,19,3.0,6.0,18,0.00,,,0.00,18.000000,,2013-06-26 13:43:00,
2013-06-26 06:53:00,74.0,28.0,-100.00,NNE,19,3.0,6.0,18,0.00,,,0.00,18.000000,,2013-06-26 13:53:00,
2013-06-26 07:02:00,74.0,28.0,-100.00,NNE,19,3.0,6.0,18,0.00,,,0.00,18.000000,,2013-06-26 14:02:00,
2013-06-26 08:02:00,86.0,31.0,-100.00,East,99,2.0,5.0,14,0.00,,,0.00,206.000000,,2013-06-26 15:02:00,
2013-06-26 08:34:00,88.0,33.0,-100.00,SE,145,4.0,7.0,14,0.00,,,0.00,415.000000,,2013-06-26 15:34:00,
2013-06-26 08:44:00,88.0,33.0,-100.00,SE,145,4.0,7.0,14,0.00,,,0.00,415.000000,,2013-06-26 15:44:00,
2013-06-26 08:53:00,88.0,33.0,-100.00,SE,145,4.0,7.0,14,0.00,,,0.00,415.000000,,2013-06-26 15:53:00,
2013-06-26 09:01:00,88.0,33.0,-100.00,SE,145,4.0,7.0,14,0.00,,,0.00,415.000000,,2013-06-26 16:01:00,
2013-06-26 09:34:00,92.0,28.0,-100.00,SSE,167,4.0,8.0,10,0.00,,,0.00,620.000000,,2013-06-26 16:34:00,
2013-06-26 09:43:00,92.0,28.0,-100.00,SSE,167,4.0,8.0,10,0.00,,,0.00,620.000000,,2013-06-26 16:43:00,
2013-06-26 09:52:00,92.0,28.0,-100.00,SSE,167,4.0,8.0,10,0.00,,,0.00,620.000000,,2013-06-26 16:52:00,
2013-06-26 10:01:00,92.0,28.0,-100.00,SSE,167,4.0,8.0,10,0.00,,,0.00,620.000000,,2013-06-26 17:01:00,
2013-06-26 10:33:00,95.0,32.0,-100.00,SW,233,6.0,17.0,11,0.00,,,0.00,800.000000,,2013-06-26 17:33:00,
2013-06-26 10:43:00,95.0,32.0,-100.00,SW,233,6.0,17.0,11,0.00,,,0.00,800.000000,,2013-06-26 17:43:00,
2013-06-26 10:52:00,95.0,32.0,-100.00,SW,233,6.0,17.0,11,0.00,,,0.00,800.000000,,2013-06-26 17:52:00,
2013-06-26 11:01:00,95.0,32.0,-100.00,SW,233,6.0,17.0,11,0.00,,,0.00,800.000000,,2013-06-26 18:01:00,
2013-06-26 11:34:00,97.0,29.0,-100.00,West,260,8.0,14.0,9,0.00,,,0.00,927.000000,,2013-06-26 18:34:00,
2013-06-26 11:43:00,97.0,29.0,-100.00,West,260,8.0,14.0,9,0.00,,,0.00,927.000000,,2013-06-26 18:43:00,
2013-06-26 11:52:00,97.0,29.0,-100.00,West,260,8.0,14.0,9,0.00,,,0.00,927.000000,,2013-06-26 18:52:00,
2013-06-26 12:01:00,97.0,29.0,-100.00,West,260,8.0,14.0,9,0.00,,,0.00,927.000000,,2013-06-26 19:01:00,
2013-06-26 12:33:00,98.0,20.0,-100.00,WSW,245,10.0,16.0,6,0.00,,,0.00,1019.000000,,2013-06-26 19:33:00,
2013-06-26 12:43:00,98.0,20.0,-100.00,WSW,245,10.0,16.0,6,0.00,,,0.00,1019.000000,,2013-06-26 19:43:00,
2013-06-26 12:52:00,98.0,20.0,-100.00,WSW,245,10.0,16.0,6,0.00,,,0.00,1019.000000,,2013-06-26 19:52:00,
2013-06-26 13:01:00,98.0,20.0,-100.00,WSW,245,10.0,16.0,6,0.00,,,0.00,1019.000000,,2013-06-26 20:01:00,
2013-06-26 13:34:00,101.0,26.0,-100.00,WSW,255,10.0,17.0,7,0.00,,,0.00,1033.000000,,2013-06-26 20:34:00,
2013-06-26 13:43:00,101.0,26.0,-100.00,WSW,255,10.0,17.0,7,0.00,,,0.00,1033.000000,,2013-06-26 20:43:00,
2013-06-26 13:52:00,101.0,26.0,-100.00,WSW,255,10.0,17.0,7,0.00,,,0.00,1033.000000,,2013-06-26 20:52:00,
2013-06-26 14:01:00,101.0,26.0,-100.00,WSW,255,10.0,17.0,7,0.00,,,0.00,1033.000000,,2013-06-26 21:01:00,
2013-06-26 14:33:00,101.0,18.0,-100.00,WSW,252,11.0,17.0,5,0.00,,,0.00,1003.000000,,2013-06-26 21:33:00,
2013-06-26 14:43:00,101.0,18.0,-100.00,WSW,252,11.0,17.0,5,0.00,,,0.00,1003.000000,,2013-06-26 21:43:00,
2013-06-26 14:52:00,101.0,18.0,-100.00,WSW,252,11.0,17.0,5,0.00,,,0.00,1003.000000,,2013-06-26 21:52:00,
2013-06-26 15:01:00,101.0,18.0,-100.00,WSW,252,11.0,17.0,5,0.00,,,0.00,1003.000000,,2013-06-26 22:01:00,
2013-06-26 15:34:00,102.0,18.0,-100.00,WSW,249,11.0,20.0,5,0.00,,,0.00,911.000000,,2013-06-26 22:34:00,
2013-06-26 15:43:00,102.0,18.0,-100.00,WSW,249,11.0,20.0,5,0.00,,,0.00,911.000000,,2013-06-26 22:43:00,
2013-06-26 15:52:00,102.0,18.0,-100.00,WSW,249,11.0,20.0,5,0.00,,,0.00,911.000000,,2013-06-26 22:52:00,
2013-06-26 16:01:00,102.0,18.0,-100.00,WSW,249,11.0,20.0,5,0.00,,,0.00,911.000000,,2013-06-26 23:01:00,
2013-06-26 16:34:00,102.0,18.0,-100.00,West,265,13.0,20.0,5,0.00,,,0.00,762.000000,,2013-06-26 23:34:00,
2013-06-26 16:43:00,102.0,18.0,-100.00,West,265,13.0,20.0,5,0.00,,,0.00,762.000000,,2013-06-26 23:43:00,
2013-06-26 16:53:00,102.0,18.0,-100.00,West,265,13.0,20.0,5,0.00,,,0.00,762.000000,,2013-06-26 23:53:00,
2013-06-26 17:01:00,102.0,18.0,-100.00,West,265,13.0,20.0,5,0.00,,,0.00,762.000000,,2013-06-27 00:01:00,
2013-06-26 18:01:00,102.0,18.0,-100.00,West,263,11.0,19.0,5,0.00,,,-99.99,572.000000,,2013-06-27 01:01:00,
2013-06-26 18:32:00,101.0,18.0,-100.00,West,281,9.0,19.0,5,0.00,,,0.00,357.000000,,2013-06-27 01:32:00,
2013-06-26 18:43:00,101.0,18.0,-100.00,West,281,9.0,19.0,5,0.00,,,0.00,357.000000,,2013-06-27 01:43:00,
2013-06-26 18:53:00,101.0,18.0,-100.00,West,281,9.0,19.0,5,0.00,,,0.00,357.000000,,2013-06-27 01:53:00,
2013-06-26 19:01:00,101.0,18.0,-100.00,West,281,9.0,19.0,5,0.00,,,0.00,357.000000,,2013-06-27 02:01:00,
2013-06-26 19:32:00,96.0,18.0,-100.00,WNW,295,8.0,17.0,6,0.00,,,0.00,113.000000,,2013-06-27 02:32:00,
2013-06-26 19:42:00,96.0,18.0,-100.00,WNW,295,8.0,17.0,6,0.00,,,0.00,113.000000,,2013-06-27 02:42:00,
2013-06-26 19:52:00,96.0,18.0,-100.00,WNW,295,8.0,17.0,6,0.00,,,0.00,113.000000,,2013-06-27 02:52:00,
2013-06-26 20:01:00,96.0,18.0,-100.00,WNW,295,8.0,17.0,6,0.00,,,0.00,113.000000,,2013-06-27 03:01:00,
2013-06-26 20:33:00,92.0,22.0,-100.00,WNW,296,6.0,12.0,8,0.00,,,0.00,6.000000,,2013-06-27 03:33:00,
2013-06-26 20:42:00,92.0,22.0,-100.00,WNW,296,6.0,12.0,8,0.00,,,0.00,6.000000,,2013-06-27 03:42:00,
2013-06-26 20:52:00,92.0,22.0,-100.00,WNW,296,6.0,12.0,8,0.00,,,0.00,6.000000,,2013-06-27 03:52:00,
2013-06-26 21:01:00,92.0,22.0,-100.00,WNW,296,6.0,12.0,8,0.00,,,0.00,6.000000,,2013-06-27 04:01:00,
2013-06-26 21:33:00,87.0,21.0,-100.00,North,350,4.0,9.0,9,0.00,,,0.00,1.000000,,2013-06-27 04:33:00,
2013-06-26 21:42:00,87.0,21.0,-100.00,North,350,4.0,9.0,9,0.00,,,0.00,1.000000,,2013-06-27 04:42:00,
2013-06-26 21:52:00,87.0,21.0,-100.00,North,350,4.0,9.0,9,0.00,,,0.00,1.000000,,2013-06-27 04:52:00,
2013-06-26 22:02:00,87.0,21.0,-100.00,North,350,4.0,9.0,9,0.00,,,0.00,1.000000,,2013-06-27 05:02:00,
2013-06-26 22:32:00,83.0,21.0,-100.00,ESE,108,2.0,6.0,10,0.00,,,-99.99,1.000000,,2013-06-27 05:32:00,
2013-06-26 22:42:00,83.0,21.0,-100.00,ESE,108,2.0,6.0,10,0.00,,,-99.99,1.000000,,2013-06-27 05:42:00,
2013-06-26 22:53:00,83.0,21.0,-100.00,ESE,108,2.0,6.0,10,0.00,,,-99.99,1.000000,,2013-06-27 05:53:00,
2013-06-26 23:01:00,83.0,21.0,-100.00,ESE,108,2.0,6.0,10,0.00,,,-99.99,1.000000,,2013-06-27 06:01:00,
2013-06-26 23:34:00,80.0,21.0,-100.00,North,359,3.0,7.0,11,0.00,,,0.00,1.000000,,2013-06-27 06:34:00,
2013-06-26 23:43:00,80.0,21.0,-100.00,North,359,3.0,7.0,11,0.00,,,0.00,1.000000,,2013-06-27 06:43:00,
2013-06-26 23:53:00,80.0,21.0,-100.00,North,359,3.0,7.0,11,0.00,,,0.00,1.000000,,2013-06-27 06:53:00,